Delray Beach, FL (33448)

10:01 AM EST on December 05, 2016 (GMT -0500)
| | Change Station

Elev -9999 ft 0.00 °N, 0.00 °E | Updated

Partly Cloudy
Partly Cloudy
°F
Feels Like °F
N
Wind Variable Wind from North
Gusts mph

Today
High -- | Low -- °F
--% Chance of Precip.
Yesterday
High -- | Low -- °F
Precip. -- in
Pressure 30.05 in
Visibility 10.0 miles
Clouds Few 1800 ft
Few 3100 ft
Dew Point Not available.
Humidity Not available.
Rainfall --
Snow Depth Not available.
6:54 AM 5:27 PM
Waxing Crescent, 32% visible
METAR KPMP 051453Z 14013KT 10SM FEW018 FEW031 27/22 A3004 RMK AO2 SLP174 T02720222 53007
Pressure 30.05 in
Visibility 10.0 miles
Clouds Few 1800 ft
Few 3100 ft
Dew Point Not available.
Humidity Not available.
Rainfall --
Snow Depth Not available.
6:54 AM 5:27 PM
Waxing Crescent, 32% visible
METAR KPMP 051453Z 14013KT 10SM FEW018 FEW031 27/22 A3004 RMK AO2 SLP174 T02720222 53007

10-Day Weather Forecast

Almanac

Astronomy

Dec. 05, 2016 Rise Set
Actual Time
Civil Twilight
Nautical Twilight
Astronomical Twilight
Moon
Length of Visible Light
Length of Day
Tomorrow will be .
, % of the Moon is Illuminated

Today's Extremes

State Highs State Lows

Community

WunderPhotos

Upload Photos

1,955,780 photos uploaded!

WunderBlog® & News

Nearby

Air Quality

  Air Quality AQ Index Pollutant
Not available.

Snow Depth

Station Depth Elevation

Earthquake Activity

City Distance Mag. Time & Date
Minimum magnitude displayed is 2.5.

Coastal Water Temperatures

Place Temperature

Stations

Nearby Weather Stations

Station Location Temp. Windchill Dew Point Humidity Wind Precip. Elev Updated Type
                   

Watches & Warnings

There are currently no watches in effect.